createdAt,value
2018-04-28T00:04:14.390Z,60.20
2018-04-28T00:09:16.841Z,60.60
2018-04-28T00:14:19.291Z,61.40
2018-04-28T00:19:21.744Z,61.60
2018-04-28T00:24:27.931Z,62.10
2018-04-28T00:29:30.425Z,62.40
2018-04-28T00:34:35.490Z,62.20
2018-04-28T00:39:38.828Z,63.00
2018-04-28T00:44:51.582Z,65.00
2018-04-28T00:49:57.585Z,65.50
2018-04-28T00:55:05.662Z,65.90
2018-04-28T01:00:23.670Z,65.70
2018-04-28T01:05:31.651Z,66.50
2018-04-28T01:10:50.494Z,66.50
2018-04-28T01:15:52.965Z,66.70
2018-04-28T01:21:02.172Z,67.20
2018-04-28T01:26:12.430Z,67.90
2018-04-28T01:31:16.470Z,68.10
2018-04-28T01:36:36.583Z,68.20
2018-04-28T01:41:56.747Z,68.40
2018-04-28T01:46:59.963Z,68.60
2018-04-28T01:52:04.943Z,68.80
2018-04-28T01:57:13.033Z,69.30
2018-04-28T02:02:16.137Z,69.30
2018-04-28T02:07:18.578Z,69.60
2018-04-28T02:12:41.912Z,70.50
2018-04-28T02:17:55.025Z,70.20
2018-04-28T02:28:53.665Z,70.20
2018-04-28T02:33:57.621Z,70.40
2018-04-28T02:39:00.052Z,70.40
2018-04-28T02:44:06.097Z,70.70
2018-04-28T02:54:54.869Z,71.60
2018-04-28T03:00:19.014Z,71.20
2018-04-28T03:05:26.069Z,71.30
2018-04-28T03:22:03.583Z,72.10
2018-04-28T03:27:11.412Z,72.20
2018-04-28T03:32:14.674Z,72.20
2018-04-28T03:37:20.738Z,72.10
2018-04-28T03:42:24.155Z,72.10
2018-04-28T03:53:07.104Z,72.50
2018-04-28T03:58:21.416Z,73.10
2018-04-28T04:03:24.840Z,72.60
2018-04-28T04:14:24.544Z,72.60
2018-04-28T04:25:07.670Z,73.40
2018-04-28T04:30:16.891Z,73.60
2018-04-28T04:35:38.069Z,73.90
2018-04-28T04:46:35.676Z,73.60
2018-04-28T04:57:01.670Z,73.70
2018-04-28T05:02:11.021Z,73.60
2018-04-28T05:07:16.051Z,73.80
2018-04-28T05:18:21.641Z,74.40
2018-04-28T05:29:23.497Z,75.60
2018-04-28T05:34:32.822Z,73.60
2018-04-28T05:39:46.077Z,73.20
2018-04-28T05:44:50.115Z,73.30
2018-04-28T05:56:10.671Z,72.70
2018-04-28T06:12:27.067Z,70.40
2018-04-28T06:17:41.430Z,68.80
2018-04-28T06:22:44.215Z,67.50
2018-04-28T06:27:46.731Z,66.30
2018-04-28T06:32:49.163Z,65.30
2018-04-28T06:37:52.382Z,62.40
2018-04-28T06:42:55.580Z,61.80
2018-04-28T06:47:58.837Z,60.40
2018-04-28T06:53:02.146Z,60.30
2018-04-28T06:58:04.587Z,60.80
2018-04-28T07:03:07.031Z,60.00
2018-04-28T07:08:09.482Z,61.20
2018-04-28T07:13:12.713Z,59.00
2018-04-28T07:18:15.154Z,59.60
2018-04-28T07:23:17.617Z,58.60
2018-04-28T07:28:20.206Z,58.50
2018-04-28T07:33:22.680Z,56.70
2018-04-28T07:38:25.900Z,56.10
2018-04-28T07:43:28.353Z,56.00
2018-04-28T07:48:30.798Z,55.40
2018-04-28T07:53:41.026Z,54.90
2018-04-28T07:58:44.353Z,54.80
2018-04-28T08:03:47.571Z,53.60
2018-04-28T08:08:50.057Z,53.60
2018-04-28T08:13:53.322Z,52.50
2018-04-28T08:18:55.771Z,52.40
2018-04-28T08:23:58.227Z,52.30
2018-04-28T08:29:00.691Z,52.30
2018-04-28T08:34:03.162Z,51.70
2018-04-28T08:39:05.626Z,52.20
2018-04-28T08:44:08.882Z,52.20
2018-04-28T08:49:11.326Z,52.10
2018-04-28T08:54:14.525Z,51.80
2018-04-28T08:59:17.742Z,51.50
2018-04-28T09:04:20.955Z,51.40
2018-04-28T09:09:26.141Z,51.30
2018-04-28T09:14:28.585Z,50.00
2018-04-28T09:19:32.568Z,49.20
2018-04-28T09:24:35.273Z,49.10
2018-04-28T09:29:37.722Z,49.90
2018-04-28T09:34:40.963Z,49.90
2018-04-28T09:39:43.410Z,49.80
2018-04-28T09:44:45.861Z,49.60
2018-04-28T09:55:18.962Z,48.60
2018-04-28T10:00:28.981Z,48.90
2018-04-28T10:05:31.442Z,48.90
2018-04-28T10:10:33.898Z,49.00
2018-04-28T10:15:44.620Z,48.80
2018-04-28T10:20:47.826Z,47.70
2018-04-28T10:25:50.288Z,47.60
2018-04-28T10:30:52.777Z,47.40
2018-04-28T10:36:17.865Z,46.70
2018-04-28T10:46:47.956Z,43.60
2018-04-28T10:51:50.555Z,44.70
2018-04-28T10:56:52.993Z,44.10
2018-04-28T11:01:56.301Z,44.10
2018-04-28T11:06:59.637Z,43.90
2018-04-28T11:12:02.200Z,43.80
2018-04-28T11:17:04.633Z,44.50
2018-04-28T11:22:07.214Z,44.50
2018-04-28T11:27:10.780Z,43.70
2018-04-28T11:32:13.235Z,44.20
2018-04-28T11:37:15.685Z,43.90
2018-04-28T11:42:20.624Z,44.30
2018-04-28T11:47:23.123Z,44.20
2018-04-28T11:52:25.583Z,43.50
2018-04-28T11:57:28.040Z,43.80
2018-04-28T12:02:31.278Z,43.90
2018-04-28T12:07:34.017Z,43.80
2018-04-28T12:12:38.143Z,43.80
2018-04-28T12:17:44.018Z,43.60
2018-04-28T12:22:46.485Z,43.70
2018-04-28T12:27:48.949Z,43.20
2018-04-28T12:32:51.397Z,42.90
2018-04-28T12:37:55.353Z,42.90
2018-04-28T12:42:58.562Z,42.70
2018-04-28T12:48:01.102Z,42.70
2018-04-28T12:53:03.540Z,41.50
2018-04-28T12:58:06.748Z,42.50
2018-04-28T13:03:11.824Z,41.40
2018-04-28T13:08:16.946Z,40.70
2018-04-28T13:13:20.164Z,41.50
2018-04-28T13:18:23.386Z,40.30
2018-04-28T13:23:26.598Z,40.90
2018-04-28T13:28:29.055Z,40.80
2018-04-28T13:33:31.498Z,40.20
2018-04-28T13:38:33.948Z,39.10
2018-04-28T13:43:37.178Z,38.80
2018-04-28T13:48:40.384Z,38.90
2018-04-28T13:53:43.628Z,39.30
2018-04-28T13:58:46.082Z,39.20
2018-04-28T14:03:49.369Z,39.90
2018-04-28T14:14:07.229Z,39.50
2018-04-28T14:19:09.678Z,39.40
2018-04-28T14:24:12.895Z,38.80
2018-04-28T14:29:16.136Z,38.90
2018-04-28T14:34:18.590Z,38.80
2018-04-28T14:39:40.250Z,38.50
2018-04-28T14:44:47.350Z,38.20
2018-04-28T14:50:08.363Z,38.20
2018-04-28T14:55:11.653Z,38.80
2018-04-28T15:00:14.101Z,38.10
2018-04-28T15:05:16.541Z,38.70
2018-04-28T15:10:19.881Z,38.90
2018-04-28T15:15:23.075Z,39.60
2018-04-28T15:20:26.293Z,39.10
2018-04-28T15:25:29.503Z,39.00
2018-04-28T15:30:32.711Z,39.10
2018-04-28T15:35:35.928Z,38.50
2018-04-28T15:40:39.139Z,38.20
2018-04-28T15:45:42.360Z,38.70
2018-04-28T15:50:44.856Z,38.60
2018-04-28T15:55:48.061Z,38.70
2018-04-28T16:00:50.509Z,38.60
2018-04-28T16:05:52.980Z,38.60
2018-04-28T16:10:55.429Z,39.20
2018-04-28T16:15:58.775Z,40.40
2018-04-28T16:21:01.217Z,40.20
2018-04-28T16:26:04.430Z,40.00
2018-04-28T16:31:07.637Z,40.20
2018-04-28T16:36:10.848Z,41.30
2018-04-28T16:41:14.064Z,41.40
2018-04-28T16:46:17.386Z,41.10
2018-04-28T16:51:20.778Z,40.60
2018-04-28T16:56:23.232Z,40.50
2018-04-28T17:01:25.686Z,40.10
2018-04-28T17:06:28.903Z,40.50
2018-04-28T17:11:31.351Z,40.50
2018-04-28T17:16:33.800Z,40.90
2018-04-28T17:21:36.248Z,41.80
2018-04-28T17:26:38.775Z,43.10
2018-04-28T17:31:41.225Z,43.60
2018-04-28T17:36:43.672Z,44.20
2018-04-28T17:41:46.134Z,44.50
2018-04-28T17:46:48.567Z,44.80
2018-04-28T17:51:51.025Z,45.00
2018-04-28T17:56:54.230Z,45.90
2018-04-28T18:01:57.439Z,46.50
2018-04-28T18:07:01.205Z,47.20
2018-04-28T18:12:12.908Z,47.10
2018-04-28T18:17:25.407Z,47.50
2018-04-28T18:22:28.624Z,49.50
2018-04-28T18:27:31.087Z,49.50
2018-04-28T18:32:34.311Z,51.30
2018-04-28T18:37:37.522Z,50.80
2018-04-28T18:42:54.424Z,51.30
2018-04-28T18:47:56.952Z,51.30
2018-04-28T18:52:59.386Z,53.00
2018-04-28T18:58:01.849Z,53.20
2018-04-28T19:03:05.055Z,53.90
2018-04-28T19:08:07.518Z,53.70
2018-04-28T19:13:09.968Z,54.60
2018-04-28T19:18:12.430Z,55.20
2018-04-28T19:23:15.742Z,56.70
2018-04-28T19:28:18.966Z,56.90
2018-04-28T19:33:21.416Z,56.80
2018-04-28T19:38:23.853Z,57.40
2018-04-28T19:43:26.314Z,57.70
2018-04-28T19:48:29.596Z,57.20
2018-04-28T19:53:33.060Z,57.50
2018-04-28T19:58:35.508Z,57.30
2018-04-28T20:03:37.951Z,57.70
2018-04-28T20:08:40.400Z,57.60
2018-04-28T20:13:43.678Z,57.90
2018-04-28T20:18:46.127Z,58.30
2018-04-28T20:24:01.409Z,58.60
2018-04-28T20:29:03.922Z,58.40
2018-04-28T20:34:07.141Z,59.10
2018-04-28T20:39:09.712Z,59.00
2018-04-28T20:44:12.104Z,59.20
2018-04-28T20:49:15.318Z,59.10
2018-04-28T20:54:18.636Z,59.00
2018-04-28T20:59:21.041Z,58.90
2018-04-28T21:04:23.484Z,59.70
2018-04-28T21:09:25.933Z,61.00
2018-04-28T21:14:28.399Z,60.90
2018-04-28T21:19:31.662Z,60.90
2018-04-28T21:24:34.167Z,60.80
2018-04-28T21:29:37.333Z,61.30
2018-04-28T21:34:39.775Z,61.20
2018-04-28T21:39:42.236Z,61.50
2018-04-28T21:44:44.695Z,61.50
2018-04-28T21:49:47.923Z,61.90
2018-04-28T21:54:50.378Z,61.90
2018-04-28T21:59:53.607Z,63.40
2018-04-28T22:04:56.827Z,63.70
2018-04-28T22:09:59.279Z,63.50
2018-04-28T22:15:01.727Z,64.60
2018-04-28T22:20:18.088Z,64.70
2018-04-28T22:25:20.549Z,65.10
2018-04-28T22:30:22.994Z,65.30
2018-04-28T22:35:29.602Z,66.00
2018-04-28T22:40:32.821Z,65.70
2018-04-28T22:45:35.455Z,65.50
2018-04-28T22:50:37.914Z,65.90
2018-04-28T22:55:40.369Z,65.70
2018-04-28T23:00:42.829Z,65.10
2018-04-28T23:05:45.275Z,65.20
2018-04-28T23:10:47.718Z,65.60
2018-04-28T23:15:50.168Z,66.00
2018-04-28T23:20:52.697Z,66.10
2018-04-28T23:25:55.172Z,66.20
2018-04-28T23:30:57.626Z,66.80
2018-04-28T23:36:00.841Z,67.00
2018-04-28T23:41:05.101Z,66.80
2018-04-28T23:46:08.119Z,66.80
2018-04-28T23:51:11.998Z,66.90
2018-04-28T23:56:29.853Z,67.00
